This is the latest recevied weather packets stored in our database for station/object KB1ZFK. If no packets are shown the sender has not sent any weather packets the latest 10 day(s).
| Time | Temp. | Humidity | Pressure | Rain* | Wind** | Luminosity | Snow |
|---|---|---|---|---|---|---|---|
| 1777904898 | 16.67° C | 45% | 1007.7 hPa | 0 mm | - | 705 W/m² | - |
| 1777904595 | 16.11° C | 45% | 1008.1 hPa | 0 mm | - | 681 W/m² | - |
| 1777904293 | 16.11° C | 46% | 1008.3 hPa | 0 mm | - | 675 W/m² | - |
| 1777903990 | 16.11° C | 43% | 1008.2 hPa | 0 mm | - | 647 W/m² | - |
| 1777903686 | 15.56° C | 46% | 1008.4 hPa | 0 mm | - | 606 W/m² | - |
| 1777903382 | 15.56° C | 47% | 1008.5 hPa | 0 mm | - | 626 W/m² | - |
| 1777903079 | 15° C | 46% | 1008.7 hPa | 0 mm | - | 612 W/m² | - |
| 1777902775 | 13.89° C | 53% | 1008.6 hPa | 0 mm | - | 589 W/m² | - |
| 1777902473 | 13.33° C | 54% | 1008.6 hPa | 0 mm | - | 105 W/m² | - |
| 1777902169 | 13.33° C | 50% | 1008.7 hPa | 0 mm | - | 163 W/m² | - |
| 1777901868 | 13.89° C | 50% | 1008.6 hPa | 0 mm | - | 210 W/m² | - |
| 1777901565 | 13.89° C | 51% | 1008.8 hPa | 0 mm | - | 414 W/m² | - |
| 1777901262 | 13.33° C | 53% | 1008.8 hPa | 0 mm | - | 399 W/m² | - |
| 1777900959 | 13.89° C | 52% | 1008.8 hPa | 0 mm | - | 209 W/m² | - |
| 1777900657 | 13.33° C | 51% | 1008.8 hPa | 0 mm | - | 483 W/m² | - |
| 1777900354 | 12.22° C | 54% | 1009 hPa | 0 mm | - | 304 W/m² | - |
| 1777900051 | 12.22° C | 54% | 1008.8 hPa | 0 mm | - | 147 W/m² | - |
| 1777899747 | 12.78° C | 51% | 1008.9 hPa | 0 mm | - | 145 W/m² | - |
| 1777899444 | 13.33° C | 51% | 1008.9 hPa | 0 mm | - | 226 W/m² | - |
| 1777899142 | 13.33° C | 51% | 1008.9 hPa | 0 mm | - | 464 W/m² | - |
| 1777898839 | 12.78° C | 52% | 1008.9 hPa | 0 mm | - | 408 W/m² | - |
| 1777898537 | 12.22° C | 51% | 1009 hPa | 0 mm | - | 368 W/m² | - |
| 1777898234 | 12.22° C | 52% | 1009.1 hPa | 0 mm | - | 343 W/m² | - |
| 1777897931 | 11.67° C | 54% | 1009.1 hPa | 0 mm | - | 308 W/m² | - |
| 1777897627 | 11.67° C | 53% | 1009.3 hPa | 0 mm | - | 279 W/m² | - |
* Rain latest hour (hover to see other rain measurements)
** Current wind speed in m/s (hover to see current wind gust speed)